Time;durP1;ratioP1;P1;durP2;ratioP2;P2;SDS_P1;SDS_P2;PMS_P1;PMS_P2;Temp;Humidity;BMP_temperature;BMP_pressure;BME280_temperature;BME280_humidity;BME280_pressure;Samples;Min_cycle;Max_cycle;Signal;HPM_P1;HPM_P2
2023/12/28 00:47:19;;;;;;;5.43;3.40;;;;;;;;;;6027275;23;20034;-85
2023/12/28 00:50:33;;;;;;;;;;;;;;;;;;;;;
2023/12/28 01:04:22;;;;;;;;;;;;;;;;;;;;;
2023/12/28 01:18:32;;;;;;;4.20;3.13;;;;;;;;;;5837105;24;20546;-84
2023/12/28 01:21:39;;;;;;;4.32;3.42;;;;;;;;;;5750582;24;20038;-84
2023/12/28 01:28:20;;;;;;;6.38;3.05;;;;;;;;;;5834627;24;20031;-84
2023/12/28 02:17:59;;;;;;;7.53;3.20;;;;;;;;;;6042267;23;20124;-87
2023/12/28 02:20:27;;;;;;;8.50;3.78;;;;;;;;;;6008766;23;20026;-87
2023/12/28 02:22:55;;;;;;;4.45;2.95;;;;;;;;;;6007902;23;20014;-87
2023/12/28 02:25:22;;;;;;;7.40;3.15;;;;;;;;;;6008377;23;20583;-88
2023/12/28 02:27:49;;;;;;;4.90;3.22;;;;;;;;;;6011004;23;20526;-87
2023/12/28 02:30:18;;;;;;;6.38;3.33;;;;;;;;;;6006578;23;20022;-87
2023/12/28 02:32:45;;;;;;;;;;;;;;;;;;6009771;23;20022;-87
2023/12/28 02:35:33;;;;;;;6.50;2.70;;;;;;;;;;6030039;23;20542;-88
2023/12/28 02:38:03;;;;;;;10.98;3.72;;;;;;;;;;6030236;23;20339;-87
2023/12/28 02:40:30;;;;;;;4.25;3.03;;;;;;;;;;6007130;23;20353;-88
2023/12/28 02:42:58;;;;;;;3.20;2.90;;;;;;;;;;6031757;23;20026;-88
2023/12/28 02:45:26;;;;;;;5.75;2.65;;;;;;;;;;6032307;23;20022;-87
2023/12/28 02:47:55;;;;;;;10.48;3.00;;;;;;;;;;6030146;23;20022;-88
2023/12/28 02:50:22;;;;;;;3.63;2.70;;;;;;;;;;6009228;23;20105;-87
2023/12/28 02:52:49;;;;;;;8.00;2.90;;;;;;;;;;6056558;23;20057;-87
2023/12/28 02:55:17;;;;;;;5.05;2.45;;;;;;;;;;6030949;23;20026;-87
2023/12/28 02:57:44;;;;;;;4.88;2.67;;;;;;;;;;6032178;23;20014;-87
2023/12/28 03:00:12;;;;;;;10.93;2.90;;;;;;;;;;6029026;23;20018;-87
2023/12/28 03:02:38;;;;;;;7.78;3.28;;;;;;;;;;6008259;23;20447;-87
2023/12/28 03:05:05;;;;;;;11.30;3.33;;;;;;;;;;6026902;23;20688;-88
2023/12/28 03:07:33;;;;;;;5.10;2.55;;;;;;;;;;6011713;23;20022;-87
2023/12/28 03:10:00;;;;;;;7.40;3.03;;;;;;;;;;6008808;23;20015;-88
2023/12/28 03:12:28;;;;;;;7.28;3.30;;;;;;;;;;6033467;23;20050;-87
2023/12/28 03:14:55;;;;;;;7.60;2.70;;;;;;;;;;6008659;23;20339;-87
2023/12/28 03:17:22;;;;;;;4.82;2.63;;;;;;;;;;6032138;23;20023;-87
2023/12/28 03:19:50;;;;;;;7.03;2.55;;;;;;;;;;6008691;23;20030;-87
2023/12/28 03:22:17;;;;;;;4.85;2.58;;;;;;;;;;6007678;23;20061;-87
2023/12/28 03:24:45;;;;;;;7.32;2.80;;;;;;;;;;6010001;23;20018;-87
2023/12/28 03:27:13;;;;;;;5.72;3.30;;;;;;;;;;6029648;23;20106;-87
2023/12/28 03:29:42;;;;;;;7.10;2.40;;;;;;;;;;6033381;23;20399;-86
2023/12/28 03:32:09;;;;;;;4.28;2.42;;;;;;;;;;6007532;23;20023;-87
2023/12/28 03:34:37;;;;;;;3.88;3.03;;;;;;;;;;6009486;23;20061;-87
2023/12/28 03:37:04;;;;;;;9.27;3.30;;;;;;;;;;6030220;23;20026;-86
2023/12/28 03:39:31;;;;;;;7.80;2.78;;;;;;;;;;6008337;23;20750;-87
2023/12/28 03:41:58;;;;;;;6.45;2.53;;;;;;;;;;6031137;23;20044;-87
2023/12/28 03:44:26;;;;;;;4.47;2.40;;;;;;;;;;6010216;23;20018;-87
2023/12/28 03:46:53;;;;;;;5.40;2.50;;;;;;;;;;6010807;23;20447;-88
2023/12/28 03:49:21;;;;;;;5.60;2.40;;;;;;;;;;6008657;23;20339;-87
2023/12/28 03:51:49;;;;;;;;;;;;;;;;;;6010840;23;20038;-87
2023/12/28 03:54:19;;;;;;;7.20;2.63;;;;;;;;;;6031518;23;19917;-87
2023/12/28 03:56:49;;;;;;;6.15;3.33;;;;;;;;;;6010664;23;20569;-87
2023/12/28 03:59:17;;;;;;;5.88;2.45;;;;;;;;;;6006347;23;20026;-87
2023/12/28 04:01:45;;;;;;;4.50;2.17;;;;;;;;;;6008698;23;20445;-87
2023/12/28 04:04:12;;;;;;;5.95;2.60;;;;;;;;;;6030742;23;20080;-88
2023/12/28 04:06:41;;;;;;;5.10;2.57;;;;;;;;;;6010230;23;20033;-87
2023/12/28 04:09:09;;;;;;;6.15;2.38;;;;;;;;;;6030842;23;20389;-88
2023/12/28 04:11:37;;;;;;;5.55;2.38;;;;;;;;;;6034617;23;20037;-87
2023/12/28 04:14:05;;;;;;;6.32;2.38;;;;;;;;;;6008533;23;20014;-87
2023/12/28 04:16:32;;;;;;;4.07;2.37;;;;;;;;;;6009406;23;20455;-87
2023/12/28 04:18:59;;;;;;;5.03;1.90;;;;;;;;;;6002241;23;20373;-88
2023/12/28 04:21:26;;;;;;;7.75;2.45;;;;;;;;;;6003133;23;20113;-87
2023/12/28 04:23:55;;;;;;;4.95;2.30;;;;;;;;;;6003853;23;20015;-87
2023/12/28 04:26:22;;;;;;;4.57;2.08;;;;;;;;;;6002786;23;20022;-87
2023/12/28 04:28:49;;;;;;;7.40;2.42;;;;;;;;;;6003602;23;20026;-87
2023/12/28 04:31:16;;;;;;;4.60;2.47;;;;;;;;;;5978357;23;20019;-88
2023/12/28 04:33:44;;;;;;;9.07;2.30;;;;;;;;;;5980626;23;20101;-87
2023/12/28 04:36:11;;;;;;;5.18;1.85;;;;;;;;;;5976452;23;20082;-87
2023/12/28 04:38:38;;;;;;;4.63;2.08;;;;;;;;;;6025191;23;20061;-88
2023/12/28 04:41:06;;;;;;;7.50;2.10;;;;;;;;;;5977177;23;20085;-88
2023/12/28 04:43:33;;;;;;;8.05;2.45;;;;;;;;;;5980024;23;20114;-87
2023/12/28 04:46:04;;;;;;;5.40;2.13;;;;;;;;;;5978228;23;20639;-88
2023/12/28 04:48:31;;;;;;;6.10;2.40;;;;;;;;;;5976272;23;20025;-88
2023/12/28 04:50:58;;;;;;;8.30;1.98;;;;;;;;;;5976025;23;20019;-88
2023/12/28 04:53:26;;;;;;;8.15;2.03;;;;;;;;;;6001352;23;20026;-87
2023/12/28 04:55:53;;;;;;;5.80;2.13;;;;;;;;;;5977347;23;20018;-87
2023/12/28 04:58:20;;;;;;;8.82;2.30;;;;;;;;;;6000248;23;20025;-88
2023/12/28 05:00:47;;;;;;;5.72;2.03;;;;;;;;;;6022130;23;20026;-87
2023/12/28 05:03:14;;;;;;;6.13;1.92;;;;;;;;;;5998975;23;20019;-87
2023/12/28 05:05:41;;;;;;;9.43;2.65;;;;;;;;;;6001811;23;20060;-87
2023/12/28 05:08:09;;;;;;;3.65;2.08;;;;;;;;;;5976377;23;20026;-87
2023/12/28 05:10:36;;;;;;;6.50;1.98;;;;;;;;;;6001958;23;20533;-86
2023/12/28 05:13:03;;;;;;;7.45;2.17;;;;;;;;;;5976020;23;20526;-88
2023/12/28 05:15:30;;;;;;;8.23;1.93;;;;;;;;;;5978060;23;20014;-87
2023/12/28 05:17:58;;;;;;;3.33;1.90;;;;;;;;;;5989640;23;20361;-87
2023/12/28 05:20:25;;;;;;;4.28;1.75;;;;;;;;;;6028764;23;20026;-87
2023/12/28 05:22:51;;;;;;;6.82;2.25;;;;;;;;;;6051679;23;20022;-87
2023/12/28 05:25:17;;;;;;;10.10;2.60;;;;;;;;;;6027647;23;20022;-87
2023/12/28 05:27:45;;;;;;;9.13;2.80;;;;;;;;;;6054006;23;20022;-87
2023/12/28 05:30:12;;;;;;;4.10;1.77;;;;;;;;;;6025796;23;20459;-88
2023/12/28 05:32:40;;;;;;;5.43;1.80;;;;;;;;;;6004225;23;20342;-87
2023/12/28 05:35:07;;;;;;;5.68;2.25;;;;;;;;;;6003528;23;20022;-87
2023/12/28 05:37:35;;;;;;;4.50;2.00;;;;;;;;;;6004198;23;20462;-88
2023/12/28 05:40:02;;;;;;;9.98;2.75;;;;;;;;;;6003745;23;20572;-87
2023/12/28 05:42:30;;;;;;;6.77;1.87;;;;;;;;;;6030144;23;20022;-87
2023/12/28 05:44:57;;;;;;;7.60;2.00;;;;;;;;;;6028185;23;20026;-88
2023/12/28 05:47:25;;;;;;;8.32;2.20;;;;;;;;;;6008824;23;21033;-88
2023/12/28 05:49:52;;;;;;;8.15;1.63;;;;;;;;;;6053788;23;20030;-88
2023/12/28 05:52:20;;;;;;;11.65;2.28;;;;;;;;;;6006545;23;20026;-88
2023/12/28 05:54:50;;;;;;;6.97;2.30;;;;;;;;;;6055722;23;20053;-88
2023/12/28 05:57:17;;;;;;;11.48;2.10;;;;;;;;;;6004630;23;20498;-88
2023/12/28 05:59:45;;;;;;;4.18;1.65;;;;;;;;;;6005963;23;20058;-87
2023/12/28 06:02:19;;;;;;;6.30;1.92;;;;;;;;;;6028047;23;20045;-88
2023/12/28 06:04:46;;;;;;;7.32;2.10;;;;;;;;;;6029873;23;20029;-87
2023/12/28 06:07:14;;;;;;;5.47;1.77;;;;;;;;;;6005273;23;20639;-87
2023/12/28 06:09:41;;;;;;;;;;;;;;;;;;6031671;23;20025;-88
2023/12/28 06:12:09;;;;;;;11.38;2.15;;;;;;;;;;6052624;23;19924;-87
2023/12/28 06:14:36;;;;;;;4.63;2.10;;;;;;;;;;6056377;23;20035;-87
2023/12/28 06:17:03;;;;;;;9.40;2.40;;;;;;;;;;6029343;23;20301;-88
2023/12/28 06:19:31;;;;;;;11.15;2.30;;;;;;;;;;6007254;23;20037;-87
2023/12/28 06:21:58;;;;;;;11.77;1.73;;;;;;;;;;6002926;23;20066;-88
2023/12/28 06:24:25;;;;;;;6.53;1.73;;;;;;;;;;6030765;23;20026;-87
2023/12/28 06:26:53;;;;;;;9.15;1.95;;;;;;;;;;6054421;23;20121;-87
2023/12/28 06:29:20;;;;;;;7.27;2.40;;;;;;;;;;6051939;23;20502;-88
2023/12/28 06:31:47;;;;;;;12.02;1.83;;;;;;;;;;6030453;23;20030;-87
2023/12/28 06:34:15;;;;;;;5.50;2.33;;;;;;;;;;6028368;23;20049;-87
2023/12/28 06:36:43;;;;;;;7.10;2.30;;;;;;;;;;6008889;23;20449;-88
2023/12/28 06:39:10;;;;;;;;;;;;;;;;;;6052634;23;20069;-87
2023/12/28 06:41:38;;;;;;;12.02;1.85;;;;;;;;;;6031170;23;19913;-87
2023/12/28 06:44:05;;;;;;;9.05;2.03;;;;;;;;;;6029215;23;20033;-87
2023/12/28 06:46:32;;;;;;;5.32;1.55;;;;;;;;;;6007031;23;20022;-87
2023/12/28 06:48:59;;;;;;;13.10;2.92;;;;;;;;;;6005775;23;20089;-87
2023/12/28 06:51:27;;;;;;;5.13;1.60;;;;;;;;;;6007279;23;20350;-87
2023/12/28 06:53:56;;;;;;;8.93;2.40;;;;;;;;;;6032796;23;20062;-87
2023/12/28 06:56:23;;;;;;;6.82;1.80;;;;;;;;;;6008953;23;20018;-87
2023/12/28 06:58:50;;;;;;;7.90;1.83;;;;;;;;;;6032758;23;20026;-87
2023/12/28 07:01:19;;;;;;;4.50;1.88;;;;;;;;;;6027868;23;20674;-87
2023/12/28 07:03:49;;;;;;;13.00;3.00;;;;;;;;;;6030139;23;20030;-87
2023/12/28 07:06:17;;;;;;;9.82;1.98;;;;;;;;;;6004990;23;20026;-88
2023/12/28 07:08:44;;;;;;;5.30;1.67;;;;;;;;;;6005673;23;20089;-88
2023/12/28 07:11:12;;;;;;;9.50;2.22;;;;;;;;;;6026510;23;20161;-87
2023/12/28 07:13:39;;;;;;;9.30;1.90;;;;;;;;;;6006926;23;20029;-88
2023/12/28 07:16:07;;;;;;;9.65;2.05;;;;;;;;;;6028258;23;20028;-87
2023/12/28 07:18:33;;;;;;;10.68;1.70;;;;;;;;;;5986372;23;20095;-87
2023/12/28 07:21:00;;;;;;;8.80;2.15;;;;;;;;;;6001645;23;20499;-88
2023/12/28 07:23:28;;;;;;;11.10;2.17;;;;;;;;;;5978526;23;20063;-87
2023/12/28 07:25:55;;;;;;;5.72;1.70;;;;;;;;;;5977570;23;20025;-87
2023/12/28 07:28:22;;;;;;;9.10;1.98;;;;;;;;;;6001860;23;20519;-88
2023/12/28 07:30:49;;;;;;;8.50;2.10;;;;;;;;;;6002028;23;20022;-87
2023/12/28 07:33:16;;;;;;;13.70;2.42;;;;;;;;;;5976576;23;20054;-87
2023/12/28 07:35:44;;;;;;;7.50;2.15;;;;;;;;;;5979028;23;20026;-87
2023/12/28 07:38:11;;;;;;;10.63;2.42;;;;;;;;;;5975340;23;20033;-87
2023/12/28 07:40:39;;;;;;;15.70;2.40;;;;;;;;;;5979667;23;20352;-87
2023/12/28 07:43:06;;;;;;;9.13;2.10;;;;;;;;;;5976248;23;20061;-86
2023/12/28 07:45:34;;;;;;;13.30;2.37;;;;;;;;;;6001999;23;20082;-87
2023/12/28 07:48:01;;;;;;;10.68;2.97;;;;;;;;;;5975967;23;20075;-87
2023/12/28 07:50:29;;;;;;;9.32;2.05;;;;;;;;;;6000531;23;20015;-87
2023/12/28 07:52:56;;;;;;;16.23;2.38;;;;;;;;;;5998741;23;20022;-87
2023/12/28 07:55:23;;;;;;;10.27;1.75;;;;;;;;;;6000900;23;20025;-87
2023/12/28 07:57:50;;;;;;;11.80;2.30;;;;;;;;;;6001058;23;20027;-87
2023/12/28 08:00:21;;;;;;;11.57;2.33;;;;;;;;;;5974723;23;20019;-87
2023/12/28 08:02:48;;;;;;;14.60;2.17;;;;;;;;;;5976295;23;20252;-88
2023/12/28 08:05:16;;;;;;;10.27;2.57;;;;;;;;;;5972232;23;20029;-87
2023/12/28 08:07:43;;;;;;;9.70;2.95;;;;;;;;;;5998254;23;20026;-87
2023/12/28 08:10:10;;;;;;;12.43;2.60;;;;;;;;;;5998814;23;20404;-87
2023/12/28 08:12:39;;;;;;;10.88;2.35;;;;;;;;;;5978270;23;20026;-87
2023/12/28 08:15:06;;;;;;;14.75;2.92;;;;;;;;;;5975662;23;20883;-87
2023/12/28 08:17:33;;;;;;;10.68;1.98;;;;;;;;;;5985513;23;20351;-87
2023/12/28 08:20:01;;;;;;;10.95;2.03;;;;;;;;;;6002559;23;20030;-87
2023/12/28 08:22:28;;;;;;;8.93;2.80;;;;;;;;;;6028783;23;20026;-87
2023/12/28 08:24:55;;;;;;;11.57;2.03;;;;;;;;;;6048152;23;20022;-87
2023/12/28 08:27:23;;;;;;;11.55;2.00;;;;;;;;;;6028502;23;20387;-87
2023/12/28 08:29:50;;;;;;;14.27;2.53;;;;;;;;;;6007171;23;20054;-88
2023/12/28 08:32:17;;;;;;;14.30;2.83;;;;;;;;;;6003241;23;20414;-88
2023/12/28 08:34:45;;;;;;;13.73;2.80;;;;;;;;;;6030676;23;20053;-87
2023/12/28 08:37:12;;;;;;;14.90;2.03;;;;;;;;;;6029059;23;20527;-87
2023/12/28 08:39:40;;;;;;;15.38;2.53;;;;;;;;;;6007886;23;20022;-87
2023/12/28 08:42:07;;;;;;;11.73;2.47;;;;;;;;;;6027910;23;20065;-87
2023/12/28 08:44:36;;;;;;;13.43;2.60;;;;;;;;;;6034699;23;20057;-88
2023/12/28 08:47:03;;;;;;;7.60;2.75;;;;;;;;;;6009481;23;20081;-87
2023/12/28 08:49:34;;;;;;;10.10;2.55;;;;;;;;;;6009681;23;20030;-91
2023/12/28 08:52:01;;;;;;;9.05;2.88;;;;;;;;;;6008442;23;20014;-88
2023/12/28 08:54:29;;;;;;;15.48;2.90;;;;;;;;;;6032025;23;20023;-88
2023/12/28 08:56:56;;;;;;;15.97;2.47;;;;;;;;;;6006602;23;20351;-88
2023/12/28 08:59:23;;;;;;;12.98;2.58;;;;;;;;;;6006351;23;20030;-88
2023/12/28 09:01:56;;;;;;;12.55;2.17;;;;;;;;;;6026860;23;20045;-89
2023/12/28 09:04:23;;;;;;;12.15;2.45;;;;;;;;;;6005358;23;20018;-88
2023/12/28 09:06:51;;;;;;;14.48;2.47;;;;;;;;;;6029146;23;20022;-89
2023/12/28 09:09:18;;;;;;;17.25;2.65;;;;;;;;;;6003230;23;20014;-88
2023/12/28 09:11:45;;;;;;;10.10;2.47;;;;;;;;;;6005954;23;20084;-88
2023/12/28 09:14:12;;;;;;;13.38;2.33;;;;;;;;;;6025668;23;20018;-88
2023/12/28 09:16:40;;;;;;;12.32;2.50;;;;;;;;;;6005088;23;20041;-88
2023/12/28 09:19:08;;;;;;;;;;;;;;;;;;5977631;23;20041;-89
2023/12/28 09:21:35;;;;;;;14.23;2.75;;;;;;;;;;6002892;23;19924;-89
2023/12/28 09:24:05;;;;;;;16.52;2.33;;;;;;;;;;5974862;23;20033;-89
2023/12/28 09:26:33;;;;;;;11.05;2.38;;;;;;;;;;6026342;23;20057;-89
2023/12/28 09:29:00;;;;;;;19.83;3.33;;;;;;;;;;6001043;23;20025;-89
2023/12/28 09:31:27;;;;;;;18.60;3.03;;;;;;;;;;6003486;23;20141;-88
2023/12/28 09:33:54;;;;;;;14.35;2.55;;;;;;;;;;5977949;23;20018;-88
2023/12/28 09:36:22;;;;;;;16.05;2.33;;;;;;;;;;5977396;23;20026;-89
2023/12/28 09:38:51;;;;;;;16.95;3.78;;;;;;;;;;6003188;23;20094;-88
2023/12/28 09:41:19;;;;;;;7.10;1.95;;;;;;;;;;5999546;23;20102;-88
2023/12/28 09:43:54;;;;;;;12.32;2.38;;;;;;;;;;6002477;23;20023;-88
2023/12/28 09:46:22;;;;;;;13.23;2.17;;;;;;;;;;6004088;23;20023;-89
2023/12/28 09:48:49;;;;;;;11.25;2.42;;;;;;;;;;5979387;23;20030;-88
2023/12/28 09:51:17;;;;;;;10.52;3.08;;;;;;;;;;5976943;23;20023;-88
2023/12/28 09:53:44;;;;;;;11.52;3.60;;;;;;;;;;5981824;23;20022;-88
2023/12/28 09:59:23;;;;;;;14.40;2.47;;;;;;;;;;6007785;23;20078;-87
2023/12/28 10:02:43;;;;;;;9.98;3.03;;;;;;;;;;5912978;24;20088;-89
2023/12/28 10:08:30;;;;;;;13.55;2.22;;;;;;;;;;5993283;23;20512;-88
2023/12/28 10:11:30;;;;;;;9.80;2.03;;;;;;;;;;5947452;23;20038;-88
2023/12/28 10:13:54;;;;;;;16.75;3.22;;;;;;;;;;5952492;23;20101;-89
2023/12/28 10:16:37;;;;;;;10.82;2.95;;;;;;;;;;5972797;23;20023;-89
2023/12/28 10:19:16;;;;;;;10.73;2.40;;;;;;;;;;5927294;23;20083;-89
2023/12/28 10:21:49;;;;;;;10.88;2.58;;;;;;;;;;5946481;23;20043;-89
2023/12/28 10:27:53;;;;;;;;;;;;;;;;;;;;;
2023/12/28 10:30:25;;;;;;;11.55;2.33;;;;;;;;;;5973572;23;20420;-89
2023/12/28 10:33:25;;;;;;;;;;;;;;;;;;;;;
2023/12/28 10:36:42;;;;;;;;;;;;;;;;;;;;;
2023/12/28 10:39:25;;;;;;;;;;;;;;;;;;;;;
2023/12/28 10:45:38;;;;;;;12.05;3.08;;;;;;;;;;5918385;24;21168;-89
2023/12/28 10:48:52;;;;;;;10.52;2.72;;;;;;;;;;5906836;24;20061;-89
2023/12/28 10:51:43;;;;;;;10.10;2.50;;;;;;;;;;5885383;24;20062;-89
2023/12/28 10:54:33;;;;;;;14.20;2.33;;;;;;;;;;5911601;24;20104;-89
2023/12/28 11:01:24;;;;;;;11.38;2.72;;;;;;;;;;5912824;24;20025;-89
2023/12/28 11:04:32;;;;;;;;;;;;;;;;;;;;;
2023/12/28 11:07:33;;;;;;;15.38;2.92;;;;;;;;;;5866812;24;20024;-89
2023/12/28 11:10:43;;;;;;;;;;;;;;;;;;;;;
